West Burlington, NY

10:27 AM EDT on August 30, 2015 (GMT -0400)
upstate NY | | Change Station
CLOSE
Current Station
Personal Weather Station
Location: Hartwick, NY
Elevation: 1352 ft
Nearby Weather Stations

Elev 1352 ft 42.76 °N, 75.03 °W | Updated 1 minute ago

Mostly Cloudy
Mostly Cloudy
64.2 °F
Feels Like 64.2 °F
N
0.0
Wind Variable Wind from SSW
Gusts 3.0 mph

Today
High -- | Low -- °F
--% Chance of Precip.
Yesterday
High -- | Low -- °F
Precip. -- in
6:23 AM 7:38 PM
Full, 99% visible
Pressure 30.11 in
Visibility 10.0 miles
Clouds Scattered Clouds 6500 ft
Scattered Clouds 12000 ft
Dew Point 62 °F
Humidity 92%
Rainfall 0.00 in
Snow Depth Not available.
UV 3 out of 12
Pollen 8.80 out of 12
Air Quality Not available.
Flu Activity Not available.
METAR KRME 301353Z 12003KT 10SM SCT065 SCT120 21/16 A3012 RMK AO2 SLP195 T02110156
Pressure 30.11 in
Visibility 10.0 miles
Clouds Scattered Clouds 6500 ft
Scattered Clouds 12000 ft
Dew Point 62 °F
Humidity 92%
Rainfall 0.00 in
Snow Depth Not available.
UV 3 out of 12
Pollen 8.80 out of 12
Air Quality Not available.
Flu Activity Not available.
METAR KRME 301353Z 12003KT 10SM SCT065 SCT120 21/16 A3012 RMK AO2 SLP195 T02110156

10-Day Weather Forecast

×

Almanac

Astronomy

Aug. 30, 2015 Rise Set
Actual Time
Civil Twilight
Nautical Twilight
Astronomical Twilight
Moon
Length of Visible Light
Length of Day
Tomorrow will be .
, % of the Moon is Illuminated

Today's Extremes

State Highs State Lows

Community

WunderPhotos

Upload Photos

1,850,974 photos uploaded!

WunderBlogs® & News

Nearby

Air Quality

  Air Quality AQ Index Pollutant
Not available.

Snow Depth

Station Depth Elevation

Earthquake Activity

City Distance Mag. Time & Date
Minimum magnitude displayed is 2.5.

Coastal Water Temperatures

Place Temperature

Stations

Nearby Weather Stations

Station Location Temp. Windchill Dew Point Humidity Wind Precip. Elev Updated Type